createdAt,value
2017-12-02T00:00:02.767Z,79.04
2017-12-02T00:00:43.219Z,79.52
2017-12-02T00:01:23.561Z,78.66
2017-12-02T00:02:03.939Z,78.75
2017-12-02T00:02:44.331Z,78.95
2017-12-02T00:03:24.743Z,79.04
2017-12-02T00:04:05.105Z,78.09
2017-12-02T00:04:45.506Z,78.42
2017-12-02T00:05:25.962Z,78.8
2017-12-02T00:06:06.353Z,78.03
2017-12-02T00:06:46.696Z,77.37
2017-12-02T00:07:27.135Z,77.66
2017-12-02T00:08:07.546Z,77.47
2017-12-02T00:08:47.990Z,77.56
2017-12-02T00:09:28.426Z,78.61
2017-12-02T00:10:08.824Z,77.84
2017-12-02T00:10:49.154Z,77.28
2017-12-02T00:11:29.681Z,77.09
2017-12-02T00:12:09.979Z,76.71
2017-12-02T00:12:50.410Z,76.32
2017-12-02T00:13:30.791Z,76.8
2017-12-02T00:14:11.211Z,77.09
2017-12-02T00:14:51.733Z,76.61
2017-12-02T00:15:32.182Z,77.37
2017-12-02T00:16:12.566Z,76.9
2017-12-02T00:16:52.907Z,76.61
2017-12-02T00:17:33.372Z,76.9
2017-12-02T00:18:13.768Z,77.18
2017-12-02T00:18:54.290Z,76.14
2017-12-02T00:19:34.604Z,75.67
2017-12-02T00:20:15.053Z,76.14
2017-12-02T00:20:55.428Z,75.85
2017-12-02T00:21:36.012Z,76.04
2017-12-02T00:22:16.290Z,76.37
2017-12-02T00:22:56.645Z,76.27
2017-12-02T00:23:37.081Z,76.18
2017-12-02T00:24:17.588Z,76.37
2017-12-02T00:24:57.977Z,75.7
2017-12-02T00:25:38.424Z,75.89
2017-12-02T00:26:18.759Z,75.04
2017-12-02T00:26:59.254Z,74.75
2017-12-02T00:27:39.622Z,74.37
2017-12-02T00:28:19.954Z,73.96
2017-12-02T00:29:00.382Z,74.24
2017-12-02T00:29:40.753Z,74.52
2017-12-02T00:33:24.293Z,76.52
2017-12-02T00:35:28.021Z,76.9
2017-12-02T00:41:23.180Z,75.7
2017-12-02T00:42:14.523Z,75.32
2017-12-02T00:45:34.968Z,74.85
2017-12-02T00:49:16.971Z,74.71
2017-12-02T00:50:09.762Z,76.04
2017-12-02T00:52:58.192Z,75.28
2017-12-02T01:09:25.591Z,77.47
2017-12-02T01:11:52.370Z,76.71
2017-12-02T01:14:26.426Z,76.9
2017-12-02T01:15:19.261Z,77.09
2017-12-02T01:16:11.337Z,77.09
2017-12-02T01:17:01.814Z,76.61
2017-12-02T01:17:42.145Z,76.75
2017-12-02T01:18:22.519Z,76.84
2017-12-02T01:19:02.880Z,76.08
2017-12-02T01:19:43.285Z,75.32
2017-12-02T01:20:23.645Z,74.94
2017-12-02T01:21:04.037Z,75.13
2017-12-02T01:21:44.474Z,74.85
2017-12-02T01:22:24.883Z,74.9
2017-12-02T01:23:05.353Z,74.81
2017-12-02T01:23:45.689Z,74.9
2017-12-02T01:24:26.066Z,75.28
2017-12-02T01:25:06.484Z,75.38
2017-12-02T01:25:46.874Z,75
2017-12-02T01:26:27.253Z,76.04
2017-12-02T01:27:07.593Z,76.14
2017-12-02T01:27:48.032Z,75.57
2017-12-02T01:28:28.527Z,76.42
2017-12-02T01:29:08.941Z,76.04
2017-12-02T01:29:49.352Z,76.14
2017-12-02T01:30:29.672Z,76.61
2017-12-02T01:31:10.084Z,76.71
2017-12-02T01:31:50.501Z,76.99
2017-12-02T01:32:30.901Z,77.28
2017-12-02T01:33:11.332Z,76.99
2017-12-02T01:33:51.713Z,76.8
2017-12-02T01:34:32.126Z,76.8
2017-12-02T01:35:12.478Z,77.28
2017-12-02T01:35:52.979Z,77.09
2017-12-02T01:36:33.330Z,77.37
2017-12-02T01:37:13.784Z,77.05
2017-12-02T01:37:54.198Z,77.33
2017-12-02T01:38:34.582Z,77.24
2017-12-02T01:39:14.994Z,77.37
2017-12-02T01:39:55.379Z,77.71
2017-12-02T01:40:35.867Z,77.66
2017-12-02T01:41:16.386Z,77.09
2017-12-02T01:41:56.755Z,77.05
2017-12-02T01:42:37.223Z,76.71
2017-12-02T01:43:17.581Z,76.99
2017-12-02T01:43:57.967Z,77.81
2017-12-02T01:44:38.377Z,77.33
2017-12-02T01:45:18.780Z,76.8
2017-12-02T01:45:59.179Z,77.43
2017-12-02T01:46:39.596Z,77.81
2017-12-02T01:47:19.997Z,77.56
2017-12-02T01:48:00.445Z,76.8
2017-12-02T01:48:40.874Z,77.18
2017-12-02T01:49:21.185Z,77.24
2017-12-02T01:50:01.551Z,77.84
2017-12-02T01:50:42.034Z,76.67
2017-12-02T01:51:22.414Z,76.86
2017-12-02T01:52:02.822Z,77.14
2017-12-02T01:52:43.233Z,77.24
2017-12-02T01:53:23.643Z,77.62
2017-12-02T01:54:03.991Z,77.9
2017-12-02T01:54:44.422Z,77.9
2017-12-02T01:55:24.793Z,78.28
2017-12-02T01:56:05.134Z,77.71
2017-12-02T01:56:45.690Z,78
2017-12-02T01:57:26.040Z,78.47
2017-12-02T01:58:06.533Z,79.23
2017-12-02T01:58:46.927Z,79.9
2017-12-02T01:59:27.301Z,79.99
2017-12-02T02:00:07.698Z,79.8
2017-12-02T02:00:48.090Z,79.46
2017-12-02T02:01:28.623Z,78.99
2017-12-02T02:02:08.995Z,78.32
2017-12-02T02:02:49.402Z,78.03
2017-12-02T02:03:29.814Z,77.84
2017-12-02T02:04:10.242Z,78.03
2017-12-02T02:04:50.759Z,77.47
2017-12-02T02:05:31.156Z,76.9
2017-12-02T02:06:11.473Z,76.8
2017-12-02T02:06:51.919Z,76.61
2017-12-02T02:07:32.338Z,76.48
2017-12-02T02:08:12.701Z,77.43
2017-12-02T02:08:53.061Z,76.95
2017-12-02T02:09:34.144Z,76.95
2017-12-02T02:10:14.527Z,76.1
2017-12-02T02:10:54.967Z,75.81
2017-12-02T02:11:35.391Z,76.57
2017-12-02T02:12:15.698Z,76.57
2017-12-02T02:12:56.080Z,77.43
2017-12-02T02:13:36.439Z,78.28
2017-12-02T02:14:16.837Z,78.56
2017-12-02T02:14:57.208Z,78.62
2017-12-02T02:15:37.643Z,78.15
2017-12-02T02:16:18.016Z,78.81
2017-12-02T02:16:58.351Z,78.72
2017-12-02T02:17:38.884Z,80.43
2017-12-02T02:18:19.265Z,80.99
2017-12-02T02:18:59.659Z,81.09
2017-12-02T02:19:40.021Z,79.76
2017-12-02T02:20:20.398Z,79.1
2017-12-02T02:21:00.808Z,79.47
2017-12-02T02:21:41.224Z,79.76
2017-12-02T02:22:21.711Z,80.43
2017-12-02T02:23:02.062Z,80.71
2017-12-02T02:23:42.480Z,80.9
2017-12-02T02:24:22.921Z,80.52
2017-12-02T02:25:03.342Z,80.33
2017-12-02T02:25:43.750Z,80.8
2017-12-02T02:26:24.099Z,80.9
2017-12-02T02:27:04.439Z,79.66
2017-12-02T02:27:44.891Z,80.99
2017-12-02T02:28:25.216Z,80.99
2017-12-02T02:29:05.617Z,80.71
2017-12-02T02:29:46.050Z,80.71
2017-12-02T02:30:26.476Z,80.24
2017-12-02T02:31:06.875Z,80.52
2017-12-02T02:31:47.234Z,81.85
2017-12-02T02:32:27.666Z,82.32
2017-12-02T02:33:08.034Z,81.75
2017-12-02T02:33:48.486Z,81.09
2017-12-02T02:34:28.865Z,81.18
2017-12-02T02:35:09.293Z,82.23
2017-12-02T02:35:49.639Z,81.66
2017-12-02T02:36:30.126Z,80.99
2017-12-02T02:37:10.513Z,81.47
2017-12-02T02:37:50.960Z,82.23
2017-12-02T02:38:31.293Z,81.47
2017-12-02T02:39:11.681Z,81.75
2017-12-02T02:39:52.153Z,80.99
2017-12-02T02:40:32.553Z,80.9
2017-12-02T02:41:13.009Z,80.71
2017-12-02T02:41:53.353Z,80.52
2017-12-02T02:42:33.749Z,80.62
2017-12-02T02:43:14.088Z,81.18
2017-12-02T02:43:54.508Z,81.47
2017-12-02T02:44:34.910Z,81.66
2017-12-02T02:45:15.321Z,80.99
2017-12-02T02:45:55.665Z,81.09
2017-12-02T02:46:36.112Z,80.56
2017-12-02T02:47:16.513Z,79.85
2017-12-02T02:47:56.889Z,79.85
2017-12-02T02:48:37.305Z,79.95
2017-12-02T02:49:17.709Z,80.37
2017-12-02T02:49:58.173Z,79.76
2017-12-02T02:50:38.586Z,79.42
2017-12-02T02:51:18.938Z,79.1
2017-12-02T02:51:59.319Z,79.28
2017-12-02T02:52:39.674Z,79.19
2017-12-02T02:53:20.088Z,80.04
2017-12-02T02:54:00.470Z,80.04
2017-12-02T02:54:40.889Z,80.04
2017-12-02T02:55:21.240Z,79.95
2017-12-02T02:56:01.697Z,80.56
2017-12-02T02:56:42.094Z,80.04
2017-12-02T02:57:22.448Z,79.19
2017-12-02T02:58:02.891Z,79.19
2017-12-02T02:58:43.320Z,79.95
2017-12-02T02:59:23.671Z,79.66
2017-12-02T03:00:04.124Z,79.57
2017-12-02T03:00:44.537Z,79.76
2017-12-02T03:01:24.901Z,79.38
2017-12-02T03:02:05.266Z,79.1
2017-12-02T03:02:45.664Z,79.57
2017-12-02T03:03:26.056Z,80.04
2017-12-02T03:04:06.442Z,79.95
2017-12-02T03:04:46.931Z,80.14
2017-12-02T03:05:27.278Z,80.71
2017-12-02T03:06:07.622Z,80.62
2017-12-02T03:06:48.039Z,80.56
2017-12-02T03:07:28.542Z,80.84
2017-12-02T03:08:08.959Z,80.56
2017-12-02T03:08:49.388Z,80.56
2017-12-02T03:09:29.852Z,80.75
2017-12-02T03:10:10.167Z,80.37
2017-12-02T03:10:50.632Z,80.18
2017-12-02T03:11:31.072Z,79.71
2017-12-02T03:12:11.405Z,79.33
2017-12-02T03:12:51.832Z,78.85
2017-12-02T03:13:32.246Z,78.56
2017-12-02T03:14:12.636Z,78.28
2017-12-02T03:14:53.006Z,78.66
2017-12-02T03:15:33.470Z,78.95
2017-12-02T03:16:13.891Z,78.28
2017-12-02T03:16:54.325Z,77.9
2017-12-02T03:17:34.786Z,78.75
2017-12-02T03:18:15.159Z,78.75
2017-12-02T03:18:55.575Z,78.47
2017-12-02T03:19:35.979Z,78.38
2017-12-02T03:20:16.381Z,78.47
2017-12-02T03:20:56.775Z,77.9
2017-12-02T03:21:37.126Z,77.71
2017-12-02T03:22:17.524Z,77.37
2017-12-02T03:22:57.944Z,77.05
2017-12-02T03:23:38.378Z,77.47
2017-12-02T03:24:18.761Z,77.24
2017-12-02T03:24:59.182Z,76.61
2017-12-02T03:25:39.518Z,76.61
2017-12-02T03:26:19.989Z,77.24
2017-12-02T03:27:00.411Z,77.14
2017-12-02T03:27:40.832Z,77.24
2017-12-02T03:28:21.182Z,77.62
2017-12-02T03:29:01.578Z,77.62
2017-12-02T03:29:42.024Z,77.43
2017-12-02T03:30:22.321Z,77.43
2017-12-02T03:31:02.766Z,77.81
2017-12-02T03:31:43.202Z,77.81
2017-12-02T03:32:23.514Z,77.81
2017-12-02T03:33:03.906Z,77.71
2017-12-02T03:33:44.339Z,78
2017-12-02T03:34:24.699Z,77.43
2017-12-02T03:35:05.163Z,78.28
2017-12-02T03:35:45.506Z,78.28
2017-12-02T03:36:25.912Z,78.38
2017-12-02T03:37:06.383Z,78.28
2017-12-02T03:37:46.660Z,77.14
2017-12-02T03:38:27.032Z,77.33
2017-12-02T03:39:07.463Z,77.24
2017-12-02T03:39:47.829Z,77.14
2017-12-02T03:40:28.302Z,77.05
2017-12-02T03:41:08.675Z,77.67
2017-12-02T03:41:49.000Z,78.62
2017-12-02T03:42:29.480Z,79.23
2017-12-02T03:43:09.840Z,79.52
2017-12-02T03:43:50.288Z,79.8
2017-12-02T03:44:30.684Z,79.9
2017-12-02T03:45:11.116Z,79.14
2017-12-02T03:45:51.574Z,79.42
2017-12-02T03:46:31.963Z,78.95
2017-12-02T03:47:12.425Z,78.09
2017-12-02T03:47:52.792Z,78.28
2017-12-02T03:48:33.176Z,78.38
2017-12-02T03:49:13.474Z,78.28
2017-12-02T03:49:53.962Z,78.38
2017-12-02T03:50:34.326Z,78.47
2017-12-02T03:51:14.791Z,78.24
2017-12-02T03:51:55.210Z,77.9
2017-12-02T03:52:35.591Z,78.43
2017-12-02T03:53:15.956Z,78.24
2017-12-02T03:53:56.369Z,78.15
2017-12-02T03:54:36.777Z,78.24
2017-12-02T03:55:17.174Z,78.24
2017-12-02T03:55:57.480Z,78.91
2017-12-02T03:56:37.887Z,78.72
2017-12-02T03:57:18.341Z,78.24
2017-12-02T03:57:58.722Z,77.86
2017-12-02T03:58:39.076Z,77.96
2017-12-02T03:59:19.513Z,78.34
2017-12-02T03:59:59.859Z,78.81
2017-12-02T04:00:40.309Z,79
2017-12-02T04:01:20.608Z,79.47
2017-12-02T04:02:01.062Z,78.81
2017-12-02T04:02:41.516Z,78.91
2017-12-02T04:03:21.854Z,78.53
2017-12-02T04:43:15.247Z,81.27
2017-12-02T04:45:40.322Z,80.9
2017-12-02T04:48:09.561Z,81.47
2017-12-02T04:48:58.184Z,81.18
2017-12-02T04:49:46.517Z,81.47
2017-12-02T04:50:38.316Z,82.7
2017-12-02T04:52:32.358Z,81.66
2017-12-02T04:53:14.787Z,81.66
2017-12-02T04:53:55.216Z,81.85
2017-12-02T04:54:35.597Z,82.13
2017-12-02T04:55:16.004Z,82.23
2017-12-02T04:55:56.411Z,81.85
2017-12-02T04:56:36.856Z,81.85
2017-12-02T04:57:17.212Z,81.09
2017-12-02T04:57:57.599Z,80.71
2017-12-02T04:58:37.947Z,80.52
2017-12-02T04:59:18.396Z,80.9
2017-12-02T04:59:58.802Z,80.57
2017-12-02T05:00:39.209Z,80.67
2017-12-02T05:01:19.592Z,81.43
2017-12-02T05:02:00.052Z,81.9
2017-12-02T05:02:40.458Z,83.61
2017-12-02T05:03:20.804Z,83.84
2017-12-02T05:04:01.207Z,83.55
2017-12-02T05:04:41.576Z,83.36
2017-12-02T05:05:22.020Z,81.85
2017-12-02T05:06:02.394Z,81.85
2017-12-02T05:06:42.804Z,81.66
2017-12-02T05:07:23.173Z,82.13
2017-12-02T05:08:03.525Z,81.56
2017-12-02T05:08:43.968Z,81.75
2017-12-02T05:09:24.351Z,81.47
2017-12-02T05:10:04.722Z,81.75
2017-12-02T05:10:45.076Z,81.75
2017-12-02T05:11:25.519Z,80.33
2017-12-02T05:12:05.892Z,80.71
2017-12-02T05:12:46.345Z,81.56
2017-12-02T05:13:26.713Z,82.13
2017-12-02T05:14:07.137Z,82.13
2017-12-02T05:14:47.573Z,81.66
2017-12-02T05:15:27.922Z,80.9
2017-12-02T05:16:08.336Z,80.62
2017-12-02T05:16:48.746Z,80.52
2017-12-02T05:17:29.181Z,80.33
2017-12-02T05:18:09.579Z,79.95
2017-12-02T05:18:49.949Z,80.14
2017-12-02T05:19:30.336Z,80.24
2017-12-02T05:20:10.723Z,80.33
2017-12-02T05:20:51.130Z,79.71
2017-12-02T05:21:31.488Z,79.52
2017-12-02T05:22:11.965Z,79.99
2017-12-02T05:22:52.358Z,78.95
2017-12-02T05:23:32.773Z,78.85
2017-12-02T05:24:13.072Z,78.85
2017-12-02T05:24:53.611Z,78.66
2017-12-02T05:25:34.040Z,78.28
2017-12-02T05:26:14.402Z,78.28
2017-12-02T05:26:54.838Z,78.19
2017-12-02T05:27:35.252Z,78.47
2017-12-02T05:28:15.643Z,79.14
2017-12-02T05:28:56.053Z,78.85
2017-12-02T05:29:36.577Z,78.28
2017-12-02T05:30:17.002Z,78.09
2017-12-02T05:30:57.402Z,78.15
2017-12-02T05:31:37.836Z,78.28
2017-12-02T05:32:18.222Z,78.05
2017-12-02T05:32:58.645Z,78.72
2017-12-02T05:33:39.001Z,78.85
2017-12-02T05:34:19.391Z,78.91
2017-12-02T05:34:59.822Z,78.24
2017-12-02T05:35:40.240Z,78.91
2017-12-02T05:36:20.594Z,78.81
2017-12-02T05:37:00.937Z,79.52
2017-12-02T05:37:41.335Z,79.14
2017-12-02T05:38:21.774Z,79.9
2017-12-02T05:39:02.098Z,79.42
2017-12-02T05:39:42.513Z,78.75
2017-12-02T05:40:22.950Z,78.28
2017-12-02T05:41:03.331Z,78.19
2017-12-02T05:41:43.725Z,78.85
2017-12-02T05:42:24.319Z,78
2017-12-02T05:43:04.711Z,78.24
2017-12-02T05:43:45.100Z,78.34
2017-12-02T05:44:25.521Z,78.24
2017-12-02T05:45:05.857Z,79
2017-12-02T05:45:46.255Z,79.28
2017-12-02T05:46:26.615Z,79
2017-12-02T05:47:07.053Z,79.19
2017-12-02T05:47:47.436Z,79.57
2017-12-02T05:48:27.884Z,79.99
2017-12-02T05:49:08.218Z,79.76
2017-12-02T05:49:48.587Z,79.38
2017-12-02T05:50:28.987Z,78.85
2017-12-02T05:51:09.411Z,78.72
2017-12-02T05:51:49.884Z,78.72
2017-12-02T05:52:30.306Z,78.91
2017-12-02T05:53:10.655Z,79.47
2017-12-02T05:53:51.122Z,80.04
2017-12-02T05:54:31.481Z,79.57
2017-12-02T05:55:11.832Z,80.24
2017-12-02T05:55:52.260Z,80.27
2017-12-02T05:56:32.656Z,79.42
2017-12-02T05:57:13.098Z,79.23
2017-12-02T05:57:53.505Z,79.04
2017-12-02T05:58:33.874Z,78.09
2017-12-02T05:59:14.241Z,78.38
2017-12-02T05:59:54.729Z,78.47
2017-12-02T06:00:35.112Z,78.28
2017-12-02T06:01:15.507Z,78.38
2017-12-02T06:01:55.964Z,78.09
2017-12-02T06:02:36.347Z,78.28
2017-12-02T06:03:16.677Z,77.9
2017-12-02T06:03:57.103Z,78.38
2017-12-02T06:04:37.559Z,78.66
2017-12-02T06:05:17.924Z,78.28
2017-12-02T06:05:58.338Z,77.62
2017-12-02T06:06:38.727Z,77.05
2017-12-02T06:07:19.216Z,77.14
2017-12-02T06:07:59.614Z,76.95
2017-12-02T06:08:39.891Z,77.05
2017-12-02T06:09:20.393Z,77.33
2017-12-02T06:10:00.838Z,78.24
2017-12-02T06:10:41.303Z,78.24
2017-12-02T06:11:21.662Z,78.91
2017-12-02T06:12:02.043Z,78.53
2017-12-02T06:12:42.557Z,79.23
2017-12-02T06:13:22.963Z,79.14
2017-12-02T06:14:03.304Z,78.28
2017-12-02T06:14:43.807Z,78.24
2017-12-02T06:15:24.161Z,77.86
2017-12-02T06:16:04.507Z,78.15
2017-12-02T06:16:44.912Z,78.72
2017-12-02T06:17:25.388Z,78.81
2017-12-02T06:18:05.721Z,79
2017-12-02T06:18:46.135Z,78.91
2017-12-02T06:19:26.567Z,79.1
2017-12-02T06:20:06.907Z,80.24
2017-12-02T06:20:47.331Z,79.76
2017-12-02T06:21:27.743Z,79.85
2017-12-02T06:22:08.092Z,79.85
2017-12-02T06:22:48.472Z,80.33
2017-12-02T06:23:28.823Z,80.14
2017-12-02T06:24:09.335Z,80.24
2017-12-02T06:24:49.669Z,80.24
2017-12-02T06:25:30.080Z,80.62
2017-12-02T06:26:10.437Z,80.04
2017-12-02T06:26:50.855Z,80.24
2017-12-02T06:27:31.205Z,80.24
2017-12-02T06:28:11.684Z,80.33
2017-12-02T06:28:52.867Z,79.85
2017-12-02T06:29:32.416Z,79.76
2017-12-02T06:30:12.899Z,79.57
2017-12-02T06:30:53.342Z,79.66
2017-12-02T06:31:33.736Z,79.85
2017-12-02T06:32:14.135Z,79.95
2017-12-02T06:32:54.569Z,79.38
2017-12-02T06:33:34.910Z,79.66
2017-12-02T06:34:15.367Z,79.57
2017-12-02T06:34:55.743Z,79.85
2017-12-02T06:35:36.262Z,79.85
2017-12-02T06:36:16.655Z,79.28
2017-12-02T06:36:57.058Z,78.72
2017-12-02T06:37:37.430Z,78.62
2017-12-02T06:38:17.833Z,78.24
2017-12-02T06:38:58.233Z,78.28
2017-12-02T06:39:38.612Z,78.24
2017-12-02T06:40:19.033Z,78.75
2017-12-02T06:40:59.423Z,78.75
2017-12-02T06:41:39.825Z,78.38
2017-12-02T06:42:20.247Z,78.56
2017-12-02T06:43:00.665Z,78.28
2017-12-02T06:43:41.075Z,78.38
2017-12-02T06:44:21.396Z,77.71
2017-12-02T06:45:01.800Z,76.86
2017-12-02T06:45:42.312Z,76.29
2017-12-02T06:46:22.684Z,76.39
2017-12-02T06:47:03.050Z,76.73
2017-12-02T06:47:43.558Z,77.77
2017-12-02T06:48:23.850Z,77.86
2017-12-02T06:49:04.280Z,78.53
2017-12-02T06:49:44.737Z,78.24
2017-12-02T06:50:25.205Z,78.34
2017-12-02T06:51:05.541Z,78.72
2017-12-02T06:51:45.923Z,78.72
2017-12-02T06:52:26.449Z,78.24
2017-12-02T06:53:06.820Z,77.86
2017-12-02T06:53:47.253Z,77.96
2017-12-02T06:54:27.557Z,77.96
2017-12-02T06:55:08.051Z,78.34
2017-12-02T06:55:48.418Z,78.05
2017-12-02T06:56:28.776Z,78.91
2017-12-02T06:57:09.175Z,79.19
2017-12-02T06:57:49.547Z,79.28
2017-12-02T06:58:29.992Z,78.91
2017-12-02T06:59:10.423Z,79.23
2017-12-02T06:59:50.711Z,78
2017-12-02T07:00:31.160Z,78.34
2017-12-02T07:01:11.506Z,78.15
2017-12-02T07:01:51.930Z,78.53
2017-12-02T07:02:32.284Z,78.72
2017-12-02T07:03:12.778Z,78.91
2017-12-02T07:03:53.191Z,79.1
2017-12-02T07:04:33.808Z,79.38
2017-12-02T07:05:14.247Z,79.99
2017-12-02T07:05:54.598Z,79.42
2017-12-02T07:06:35.180Z,78.95
2017-12-02T07:07:15.697Z,78.66
2017-12-02T07:07:56.083Z,78.28
2017-12-02T07:08:36.522Z,77.62
2017-12-02T07:09:16.836Z,77.62
2017-12-02T07:09:57.350Z,77.81
2017-12-02T07:10:37.697Z,78.28
2017-12-02T07:11:18.037Z,78.28
2017-12-02T07:11:58.557Z,78.75
2017-12-02T07:12:38.940Z,78.95
2017-12-02T07:13:19.343Z,78.19
2017-12-02T07:13:59.766Z,78.34
2017-12-02T07:14:40.126Z,78.85
2017-12-02T07:15:20.533Z,78.05
2017-12-02T07:16:00.908Z,78.62
2017-12-02T07:16:41.314Z,79
2017-12-02T07:17:21.741Z,79.66
2017-12-02T07:18:02.203Z,79.76
2017-12-02T07:18:42.590Z,79.19
2017-12-02T07:19:23.001Z,79.57
2017-12-02T07:20:03.362Z,80.14
2017-12-02T07:20:43.751Z,80.33
2017-12-02T07:21:24.194Z,79.95
2017-12-02T07:22:04.517Z,79.85
2017-12-02T07:22:44.979Z,79.76
2017-12-02T07:23:25.400Z,79.85
2017-12-02T07:24:05.741Z,79.71
2017-12-02T07:24:46.106Z,79.9
2017-12-02T07:25:26.545Z,79.04
2017-12-02T07:26:06.850Z,78.75
2017-12-02T07:26:47.344Z,78.05
2017-12-02T07:27:27.639Z,78.24
2017-12-02T07:28:08.087Z,78.05
2017-12-02T07:28:48.479Z,78.72
2017-12-02T07:29:28.852Z,79.19
2017-12-02T07:30:09.235Z,79.76
2017-12-02T07:30:49.554Z,80.04
2017-12-02T07:31:30.092Z,79.95
2017-12-02T07:32:10.444Z,80.14
2017-12-02T07:32:50.815Z,79.95
2017-12-02T07:33:31.231Z,79.95
2017-12-02T07:34:11.616Z,80.33
2017-12-02T07:34:52.010Z,81.75
2017-12-02T07:35:32.410Z,82.23
2017-12-02T07:36:12.808Z,81.94
2017-12-02T07:36:53.211Z,81.09
2017-12-02T07:37:33.586Z,81.47
2017-12-02T07:38:14.044Z,81.66
2017-12-02T07:38:54.515Z,81.66
2017-12-02T07:39:34.919Z,80.99
2017-12-02T07:40:15.287Z,81.66
2017-12-02T07:40:55.677Z,82.32
2017-12-02T07:41:36.085Z,83.36
2017-12-02T07:42:16.453Z,82.7
2017-12-02T07:42:56.903Z,82.89
2017-12-02T07:43:37.377Z,81.09
2017-12-02T07:44:17.923Z,80.43
2017-12-02T07:44:58.171Z,80.04
2017-12-02T07:45:38.581Z,79.66
2017-12-02T07:46:18.995Z,79.1
2017-12-02T07:46:59.278Z,79.85
2017-12-02T07:47:39.742Z,79.76
2017-12-02T07:48:20.087Z,80.43
2017-12-02T07:49:00.481Z,79.66
2017-12-02T07:49:40.862Z,79.38
2017-12-02T07:50:21.341Z,79.57
2017-12-02T07:51:01.695Z,79.95
2017-12-02T07:51:42.157Z,79.85
2017-12-02T07:52:22.596Z,80.14
2017-12-02T07:53:02.898Z,79.76
2017-12-02T07:53:43.550Z,79.38
2017-12-02T07:54:23.910Z,78.72
2017-12-02T07:55:04.297Z,79.76
2017-12-02T07:55:44.873Z,79.66
2017-12-02T07:56:25.175Z,79.57
2017-12-02T07:57:05.582Z,79.38
2017-12-02T07:57:46.055Z,79.76
2017-12-02T07:58:26.484Z,80.52
2017-12-02T07:59:07.560Z,80.57
2017-12-02T07:59:48.229Z,81.27
2017-12-02T08:00:28.308Z,81.66
2017-12-02T08:01:08.997Z,82.13
2017-12-02T08:01:49.821Z,81.66
2017-12-02T08:02:31.583Z,80.99
2017-12-02T08:03:11.969Z,80.62
2017-12-02T08:03:52.344Z,81.18
2017-12-02T08:04:32.775Z,80.62
2017-12-02T08:05:13.131Z,80.33
2017-12-02T08:05:53.581Z,80.24
2017-12-02T08:06:33.946Z,80.71
2017-12-02T08:07:14.246Z,79.85
2017-12-02T08:07:54.741Z,79.76
2017-12-02T08:08:35.258Z,79.85
2017-12-02T08:09:15.699Z,79.38
2017-12-02T08:09:56.130Z,79.85
2017-12-02T08:10:36.486Z,79.47
2017-12-02T08:11:16.920Z,79.47
2017-12-02T08:11:57.329Z,80.33
2017-12-02T08:12:38.077Z,80.33
2017-12-02T08:13:19.574Z,80.52
2017-12-02T08:14:01.064Z,80.43
2017-12-02T08:14:42.154Z,80.33
2017-12-02T08:15:23.959Z,80.62
2017-12-02T08:16:04.605Z,79.66
2017-12-02T08:16:45.012Z,79.76
2017-12-02T08:17:25.284Z,79.85
2017-12-02T08:18:05.638Z,80.14
2017-12-02T08:18:46.105Z,79.85
2017-12-02T08:19:26.446Z,79.76
2017-12-02T08:20:06.837Z,78.81
2017-12-02T08:20:47.239Z,78.75
2017-12-02T08:21:27.599Z,79.14
2017-12-02T08:22:08.104Z,78.75
2017-12-02T08:22:48.450Z,78.95
2017-12-02T08:23:28.869Z,78.19
2017-12-02T08:24:09.213Z,77.14
2017-12-02T08:24:49.575Z,77.33
2017-12-02T08:25:29.946Z,78
2017-12-02T08:26:11.372Z,77.62
2017-12-02T08:26:50.877Z,77.43
2017-12-02T08:27:31.397Z,78
2017-12-02T08:28:11.724Z,77.81
2017-12-02T08:28:52.119Z,77.05
2017-12-02T08:29:32.584Z,77.33
2017-12-02T08:30:12.872Z,77.05
2017-12-02T08:30:53.340Z,76.95
2017-12-02T08:31:33.756Z,76.67
2017-12-02T08:32:14.133Z,77.24
2017-12-02T08:32:54.570Z,77.24
2017-12-02T08:33:34.997Z,77.14
2017-12-02T08:34:15.481Z,77.81
2017-12-02T08:34:55.814Z,77.62
2017-12-02T08:35:36.190Z,76.39
2017-12-02T08:36:16.682Z,76.2
2017-12-02T08:36:57.220Z,76.39
2017-12-02T08:37:37.628Z,76.1
2017-12-02T08:38:18.014Z,76.67
2017-12-02T08:38:58.464Z,76.29
2017-12-02T08:39:38.789Z,75.81
2017-12-02T08:40:19.308Z,76.39
2017-12-02T08:40:59.694Z,76.92
2017-12-02T08:41:40.096Z,77.11
2017-12-02T08:42:20.388Z,76.82
2017-12-02T08:43:00.750Z,77.01
2017-12-02T08:43:41.256Z,77.96
2017-12-02T08:44:21.685Z,78.81
2017-12-02T08:45:02.105Z,78.15
2017-12-02T08:45:42.477Z,78.24
2017-12-02T08:46:22.918Z,78.72
2017-12-02T08:47:03.301Z,78.24
2017-12-02T08:47:43.677Z,78.72
2017-12-02T08:48:24.079Z,79.19
2017-12-02T08:49:04.473Z,79.19
2017-12-02T08:49:44.885Z,80.33
2017-12-02T08:50:25.225Z,78.91
2017-12-02T08:51:05.694Z,79.28
2017-12-02T08:51:46.027Z,79.38
2017-12-02T08:52:26.489Z,80.33
2017-12-02T08:53:06.928Z,79.19
2017-12-02T08:53:47.241Z,78.24
2017-12-02T08:54:27.668Z,78.81
2017-12-02T08:55:08.067Z,79.38
2017-12-02T08:55:48.443Z,79.85
2017-12-02T08:56:28.951Z,79.19
2017-12-02T08:57:09.262Z,79.38
2017-12-02T08:57:49.653Z,78.62
2017-12-02T08:58:30.125Z,78.24
2017-12-02T08:59:10.559Z,78.75
2017-12-02T08:59:51.135Z,78.47
2017-12-02T09:00:31.464Z,78.75
2017-12-02T09:01:11.934Z,78.66
2017-12-02T09:01:52.391Z,77.71
2017-12-02T09:02:32.824Z,77.14
2017-12-02T09:03:13.159Z,76.76
2017-12-02T09:03:53.583Z,76.57
2017-12-02T09:04:33.939Z,76.57
2017-12-02T09:05:14.337Z,76.95
2017-12-02T09:05:54.855Z,76.67
2017-12-02T09:06:35.232Z,76.39
2017-12-02T09:07:15.576Z,76.95
2017-12-02T09:07:56.013Z,76.86
2017-12-02T09:08:36.612Z,76.2
2017-12-02T09:09:16.849Z,76.15
2017-12-02T09:10:09.741Z,76.15
2017-12-02T09:12:07.225Z,78.43
2017-12-02T09:12:47.595Z,78.81
2017-12-02T09:13:28.008Z,78.81
2017-12-02T09:14:08.336Z,78.91
2017-12-02T09:14:48.741Z,79
2017-12-02T09:15:29.146Z,79
2017-12-02T09:16:09.514Z,78.81
2017-12-02T09:16:49.878Z,78.24
2017-12-02T09:17:30.315Z,79.19
2017-12-02T09:18:10.731Z,77.96
2017-12-02T09:18:51.085Z,78.91
2017-12-02T09:19:31.464Z,79.1
2017-12-02T09:20:11.919Z,79.57
2017-12-02T09:20:52.293Z,78.81
2017-12-02T09:21:32.683Z,79.1
2017-12-02T09:22:13.088Z,78.91
2017-12-02T09:22:53.488Z,78.24
2017-12-02T09:23:33.908Z,78.24
2017-12-02T09:24:14.224Z,78.34
2017-12-02T09:24:54.644Z,78.05
2017-12-02T09:25:35.084Z,78.24
2017-12-02T09:26:15.383Z,78.34
2017-12-02T09:26:55.805Z,78.34
2017-12-02T09:27:36.175Z,78.24
2017-12-02T09:28:16.656Z,77.86
2017-12-02T09:28:57.957Z,77.96
2017-12-02T09:29:38.335Z,78.34
2017-12-02T09:30:18.742Z,78.72
2017-12-02T09:30:59.070Z,78.72
2017-12-02T09:31:39.479Z,78.91
2017-12-02T09:32:19.927Z,79.19
2017-12-02T09:33:00.255Z,79.9
2017-12-02T09:33:40.679Z,79.8
2017-12-02T09:34:21.097Z,78.95
2017-12-02T09:35:01.591Z,78.75
2017-12-02T09:35:42.002Z,78.09
2017-12-02T09:36:22.370Z,78.47
2017-12-02T09:37:02.847Z,78.38
2017-12-02T09:37:43.155Z,78.66
2017-12-02T09:38:23.578Z,78.85
2017-12-02T09:39:04.007Z,78.85
2017-12-02T09:39:44.403Z,78.09
2017-12-02T09:40:24.822Z,77.43
2017-12-02T09:41:05.145Z,77.33
2017-12-02T09:41:45.617Z,77.62
2017-12-02T09:42:25.963Z,77.62
2017-12-02T09:43:06.363Z,77.71
2017-12-02T09:43:46.798Z,78.23
2017-12-02T09:44:27.164Z,77.75
2017-12-02T09:45:07.582Z,77.05
2017-12-02T09:45:48.021Z,75.81
2017-12-02T09:46:28.312Z,75.72
2017-12-02T09:47:08.743Z,76.39
2017-12-02T09:47:49.105Z,76.95
2017-12-02T09:48:29.515Z,77.18
2017-12-02T09:49:09.978Z,76.76
2017-12-02T09:49:50.346Z,76.23
2017-12-02T09:50:30.777Z,76.42
2017-12-02T09:51:11.137Z,76.29
2017-12-02T09:51:51.557Z,76.29
2017-12-02T09:52:31.895Z,76.14
2017-12-02T09:53:12.354Z,76.42
2017-12-02T09:53:52.692Z,76.99
2017-12-02T09:54:33.183Z,76.52
2017-12-02T09:55:13.485Z,76.14
2017-12-02T09:55:53.881Z,76.14
2017-12-02T09:56:34.236Z,75.67
2017-12-02T09:57:14.663Z,75.76
2017-12-02T09:57:55.071Z,75.28
2017-12-02T09:58:35.472Z,76.04
2017-12-02T09:59:15.826Z,75.85
2017-12-02T09:59:56.275Z,75.57
2017-12-02T10:00:36.692Z,75.67
2017-12-02T10:01:17.083Z,76.42
2017-12-02T10:01:57.537Z,75.85
2017-12-02T10:02:37.949Z,75.09
2017-12-02T10:03:18.382Z,75.38
2017-12-02T10:03:58.791Z,74.71
2017-12-02T10:42:44.872Z,78.24
2017-12-02T10:43:33.291Z,77.86
2017-12-02T10:44:22.214Z,78.91